createdAt,value
2022-10-18T00:01:06.113Z,88.52
2022-10-18T00:03:34.871Z,88.07
2022-10-18T00:06:03.262Z,89.27
2022-10-18T00:08:31.298Z,89.42
2022-10-18T00:10:58.808Z,89.07
2022-10-18T00:13:26.757Z,89.78
2022-10-18T00:15:56.372Z,89.96
2022-10-18T00:18:24.408Z,90.30
2022-10-18T00:21:06.494Z,90.78
2022-10-18T00:23:35.972Z,91.12
2022-10-18T00:26:14.844Z,90.79
2022-10-18T00:28:42.968Z,91.49
2022-10-18T00:31:21.602Z,91.39
2022-10-18T00:33:52.148Z,91.81
2022-10-18T00:36:20.725Z,92.17
2022-10-18T00:38:49.238Z,92.70
2022-10-18T00:41:21.792Z,92.59
2022-10-18T00:44:28.210Z,92.93
2022-10-18T00:47:02.473Z,92.62
2022-10-18T00:49:36.040Z,93.14
2022-10-18T00:52:22.718Z,93.25
2022-10-18T00:54:52.363Z,94.03
2022-10-18T00:57:19.101Z,93.28
2022-10-18T00:59:47.544Z,92.91
2022-10-18T01:02:18.311Z,92.99
2022-10-18T01:04:47.440Z,93.65
2022-10-18T01:07:42.440Z,92.84
2022-10-18T01:10:34.990Z,93.83
2022-10-18T01:13:29.158Z,93.11
2022-10-18T01:16:45.118Z,94.13
2022-10-18T01:19:38.927Z,93.64
2022-10-18T01:22:50.312Z,93.37
2022-10-18T01:26:01.687Z,94.16
2022-10-18T01:29:08.050Z,93.56
2022-10-18T01:31:48.105Z,93.38
2022-10-18T01:34:17.998Z,93.06
2022-10-18T01:36:51.057Z,93.62
2022-10-18T01:39:23.690Z,93.38
2022-10-18T01:41:53.972Z,93.87
2022-10-18T01:44:26.596Z,93.58
2022-10-18T01:46:57.224Z,93.84
2022-10-18T01:49:25.781Z,94.02
2022-10-18T01:51:54.150Z,93.65
2022-10-18T01:54:28.095Z,94.11
2022-10-18T01:57:15.743Z,94.86
2022-10-18T02:00:05.126Z,94.42
2022-10-18T02:02:48.516Z,93.96
2022-10-18T02:05:42.634Z,93.71
2022-10-18T02:08:28.598Z,93.85
2022-10-18T02:11:06.929Z,93.41
2022-10-18T02:13:48.284Z,93.08
2022-10-18T02:16:22.960Z,91.84
2022-10-18T02:18:58.862Z,91.75
2022-10-18T02:21:28.088Z,91.68
2022-10-18T02:23:58.549Z,91.93
2022-10-18T02:26:25.562Z,91.61
2022-10-18T02:28:53.506Z,91.94
2022-10-18T02:31:44.444Z,92.26
2022-10-18T02:34:24.739Z,92.63
2022-10-18T02:36:58.776Z,92.85
2022-10-18T02:39:35.852Z,92.85
2022-10-18T02:42:10.913Z,92.04
2022-10-18T02:44:38.631Z,91.86
2022-10-18T02:47:08.300Z,91.15
2022-10-18T02:49:36.302Z,90.50
2022-10-18T02:52:04.439Z,90.91
2022-10-18T02:54:31.018Z,90.35
2022-10-18T02:56:58.897Z,90.02
2022-10-18T02:59:26.866Z,90.10
2022-10-18T03:01:54.879Z,89.50
2022-10-18T03:04:23.032Z,90.13
2022-10-18T03:06:49.655Z,90.11
2022-10-18T03:09:16.542Z,90.07
2022-10-18T03:11:44.373Z,89.50
2022-10-18T03:14:12.449Z,89.97
2022-10-18T03:16:40.800Z,89.68
2022-10-18T03:19:08.491Z,89.62
2022-10-18T03:21:36.529Z,89.10
2022-10-18T03:24:04.750Z,89.52
2022-10-18T03:26:32.633Z,88.88
2022-10-18T03:29:00.634Z,89.10
2022-10-18T03:31:28.702Z,88.72
2022-10-18T03:33:56.921Z,88.42
2022-10-18T03:36:24.672Z,89.09
2022-10-18T03:38:52.503Z,88.94
2022-10-18T03:41:20.921Z,89.77
2022-10-18T03:43:48.839Z,88.95
2022-10-18T03:46:15.487Z,89.46
2022-10-18T03:48:42.124Z,89.83
2022-10-18T03:51:10.315Z,89.57
2022-10-18T03:53:39.087Z,89.48
2022-10-18T03:56:07.118Z,89.58
2022-10-18T04:01:07.104Z,89.40
2022-10-18T04:03:33.662Z,89.96
2022-10-18T04:06:00.840Z,89.77
2022-10-18T04:08:27.496Z,90.24
2022-10-18T04:10:54.140Z,89.79
2022-10-18T04:13:21.852Z,89.30
2022-10-18T04:15:49.880Z,90.13
2022-10-18T04:18:17.746Z,88.91
2022-10-18T04:20:45.489Z,88.55
2022-10-18T04:23:13.318Z,87.09
2022-10-18T04:25:41.179Z,87.61
2022-10-18T04:28:08.819Z,87.47
2022-10-18T04:30:36.696Z,87.33
2022-10-18T04:33:04.495Z,87.57
2022-10-18T04:35:32.497Z,87.41
2022-10-18T04:38:03.033Z,87.10
2022-10-18T04:40:31.037Z,87.60
2022-10-18T04:42:58.953Z,87.24
2022-10-18T04:45:26.684Z,87.63
2022-10-18T04:47:54.552Z,88.45
2022-10-18T04:50:22.362Z,87.00
2022-10-18T04:55:23.357Z,87.59
2022-10-18T04:57:52.454Z,87.48
2022-10-18T05:00:20.293Z,87.94
2022-10-18T05:02:50.412Z,87.51
2022-10-18T05:05:18.450Z,87.21
2022-10-18T05:07:46.347Z,87.61
2022-10-18T05:10:14.033Z,87.29
2022-10-18T05:12:43.803Z,87.87
2022-10-18T05:15:11.501Z,86.45
2022-10-18T05:17:40.655Z,86.53
2022-10-18T05:20:11.482Z,86.42
2022-10-18T05:22:39.555Z,86.20
2022-10-18T05:25:10.230Z,85.66
2022-10-18T05:27:38.406Z,85.88
2022-10-18T05:30:06.777Z,86.28
2022-10-18T05:32:36.514Z,86.28
2022-10-18T05:35:04.689Z,86.15
2022-10-18T05:37:32.823Z,85.57
2022-10-18T05:39:59.763Z,85.47
2022-10-18T05:42:27.591Z,85.33
2022-10-18T05:44:55.376Z,85.56
2022-10-18T05:47:23.289Z,85.22
2022-10-18T05:49:49.982Z,85.46
2022-10-18T05:52:17.280Z,84.93
2022-10-18T05:54:43.936Z,84.77
2022-10-18T05:57:10.535Z,84.46
2022-10-18T05:59:37.112Z,84.59
2022-10-18T06:02:03.790Z,83.53
2022-10-18T06:04:30.417Z,83.56
2022-10-18T06:06:57.101Z,82.68
2022-10-18T06:09:23.743Z,81.39
2022-10-18T06:11:50.321Z,80.32
2022-10-18T06:14:16.872Z,79.89
2022-10-18T06:16:43.435Z,78.97
2022-10-18T06:19:10.400Z,78.72
2022-10-18T06:21:37.026Z,77.91
2022-10-18T06:24:03.752Z,77.40
2022-10-18T06:26:30.376Z,76.58
2022-10-18T06:28:56.992Z,76.47
2022-10-18T06:31:23.756Z,75.34
2022-10-18T06:33:50.633Z,74.70
2022-10-18T06:36:19.841Z,74.28
2022-10-18T06:38:46.517Z,73.96
2022-10-18T06:41:13.411Z,73.11
2022-10-18T06:43:40.316Z,73.27
2022-10-18T06:46:08.291Z,72.90
2022-10-18T06:48:36.597Z,70.97
2022-10-18T06:51:06.149Z,70.48
2022-10-18T06:53:40.800Z,69.79
2022-10-18T06:56:12.802Z,68.62
2022-10-18T06:58:40.579Z,68.28
2022-10-18T07:01:19.903Z,67.46
2022-10-18T07:03:48.007Z,66.75
2022-10-18T07:06:17.435Z,66.25
2022-10-18T07:08:44.878Z,66.63
2022-10-18T07:11:17.561Z,65.54
2022-10-18T07:13:44.525Z,64.72
2022-10-18T07:16:17.276Z,64.10
2022-10-18T07:18:50.840Z,64.20
2022-10-18T07:21:20.262Z,63.45
2022-10-18T07:23:47.906Z,62.73
2022-10-18T07:26:27.183Z,61.86
2022-10-18T07:29:00.520Z,61.51
2022-10-18T07:31:28.788Z,60.72
2022-10-18T07:33:55.548Z,60.50
2022-10-18T07:36:24.722Z,61.50
2022-10-18T07:38:54.564Z,60.99
2022-10-18T07:41:23.336Z,59.87
2022-10-18T07:43:52.734Z,59.26
2022-10-18T07:46:22.103Z,58.47
2022-10-18T07:48:50.418Z,57.88
2022-10-18T07:51:20.268Z,57.11
2022-10-18T07:53:48.510Z,55.84
2022-10-18T07:56:21.015Z,54.51
2022-10-18T07:58:55.289Z,53.02
2022-10-18T08:01:24.796Z,51.59
2022-10-18T08:03:53.082Z,51.57
2022-10-18T08:06:22.915Z,50.72
2022-10-18T08:08:51.644Z,49.91
2022-10-18T08:11:23.068Z,48.78
2022-10-18T08:13:52.829Z,48.17
2022-10-18T08:16:29.264Z,47.28
2022-10-18T08:19:00.142Z,47.62
2022-10-18T08:21:28.266Z,45.78
2022-10-18T08:23:56.034Z,45.77
2022-10-18T08:26:23.851Z,46.06
2022-10-18T08:29:03.636Z,45.31
2022-10-18T08:31:37.088Z,45.69
2022-10-18T08:34:03.666Z,45.28
2022-10-18T08:36:30.249Z,44.46
2022-10-18T08:38:56.945Z,44.15
2022-10-18T08:41:47.297Z,44.38
2022-10-18T08:44:32.156Z,43.40
2022-10-18T08:47:04.322Z,43.56
2022-10-18T08:49:46.277Z,42.80
2022-10-18T08:52:37.198Z,42.36
2022-10-18T08:55:12.519Z,42.31
2022-10-18T08:57:39.172Z,40.87
2022-10-18T09:00:16.200Z,39.91
2022-10-18T09:02:48.611Z,39.79
2022-10-18T09:05:25.144Z,37.66
2022-10-18T09:08:11.583Z,37.79
2022-10-18T09:10:52.072Z,35.97
2022-10-18T09:13:31.744Z,36.28
2022-10-18T09:16:04.980Z,35.20
2022-10-18T09:19:08.164Z,34.98
2022-10-18T09:21:40.698Z,34.52
2022-10-18T09:24:54.558Z,34.58
2022-10-18T09:27:28.925Z,33.64
2022-10-18T09:30:05.361Z,33.78
2022-10-18T09:32:50.185Z,32.12
2022-10-18T09:35:27.374Z,33.05
2022-10-18T09:38:02.225Z,33.46
2022-10-18T09:40:33.160Z,33.32
2022-10-18T09:43:17.696Z,32.89
2022-10-18T09:45:45.884Z,32.17
2022-10-18T09:48:15.072Z,31.42
2022-10-18T09:50:48.969Z,30.54
2022-10-18T09:53:37.553Z,30.75
2022-10-18T09:56:15.095Z,29.48
2022-10-18T09:58:51.280Z,29.95
2022-10-18T10:01:30.360Z,30.23
2022-10-18T10:03:56.965Z,30.24
2022-10-18T10:06:31.998Z,29.90
2022-10-18T10:09:07.235Z,30.38
2022-10-18T10:11:40.353Z,30.54
2022-10-18T10:16:55.379Z,29.76
2022-10-18T10:19:35.880Z,29.86
2022-10-18T10:22:14.260Z,29.49
2022-10-18T10:24:53.747Z,29.47
2022-10-18T10:27:34.787Z,29.05
2022-10-18T10:30:07.130Z,28.42
2022-10-18T10:32:46.986Z,28.31
2022-10-18T10:35:53.661Z,28.51
2022-10-18T10:38:26.096Z,28.11
2022-10-18T10:40:53.715Z,28.30
2022-10-18T10:43:43.283Z,27.93
2022-10-18T10:46:11.759Z,28.49
2022-10-18T10:48:49.962Z,28.01
2022-10-18T10:51:28.478Z,27.91
2022-10-18T10:54:04.414Z,27.46
2022-10-18T10:56:37.588Z,26.60
2022-10-18T10:59:14.655Z,27.44
2022-10-18T11:01:41.916Z,28.32
2022-10-18T11:04:30.613Z,27.68
2022-10-18T11:07:08.992Z,26.75
2022-10-18T11:09:51.065Z,26.37
2022-10-18T11:12:26.931Z,26.72
2022-10-18T11:15:10.018Z,27.01
2022-10-18T11:17:45.267Z,26.43
2022-10-18T11:20:17.961Z,26.08
2022-10-18T11:22:54.198Z,25.71
2022-10-18T11:25:23.210Z,26.97
2022-10-18T11:28:06.427Z,26.62
2022-10-18T11:30:53.554Z,26.13
2022-10-18T11:34:09.378Z,25.66
2022-10-18T11:36:56.208Z,25.59
2022-10-18T11:40:07.337Z,24.86
2022-10-18T11:43:01.050Z,24.75
2022-10-18T11:45:41.911Z,24.07
2022-10-18T11:48:24.124Z,24.22
2022-10-18T11:51:10.370Z,24.97
2022-10-18T11:54:26.079Z,24.20
2022-10-18T11:57:18.609Z,23.63
2022-10-18T12:00:03.900Z,23.92
2022-10-18T12:03:01.398Z,23.66
2022-10-18T12:05:29.615Z,23.26
2022-10-18T12:08:07.205Z,24.30
2022-10-18T12:10:46.231Z,25.37
2022-10-18T12:13:39.063Z,24.14
2022-10-18T12:16:07.944Z,24.03
2022-10-18T12:18:36.712Z,24.33
2022-10-18T12:21:05.550Z,23.64
2022-10-18T12:23:43.423Z,23.55
2022-10-18T12:26:11.576Z,22.95
2022-10-18T12:28:58.230Z,23.20
2022-10-18T12:31:28.357Z,22.35
2022-10-18T12:34:00.384Z,22.43
2022-10-18T12:36:48.159Z,22.80
2022-10-18T12:42:47.612Z,22.54
2022-10-18T12:45:20.234Z,23.35
2022-10-18T12:48:29.345Z,23.20
2022-10-18T12:51:20.731Z,22.74
2022-10-18T12:54:17.389Z,22.42
2022-10-18T12:56:46.828Z,22.78
2022-10-18T12:59:16.315Z,22.39
2022-10-18T13:01:54.811Z,22.37
2022-10-18T13:04:27.174Z,22.64
2022-10-18T13:06:59.937Z,23.38
2022-10-18T13:09:28.433Z,23.83
2022-10-18T13:12:19.360Z,23.01
2022-10-18T13:15:12.711Z,22.77
2022-10-18T13:17:53.168Z,22.53
2022-10-18T13:21:01.138Z,22.34
2022-10-18T13:24:04.559Z,22.29
2022-10-18T13:29:54.551Z,22.19
2022-10-18T13:32:34.238Z,22.00
2022-10-18T13:35:01.362Z,21.80
2022-10-18T13:37:30.241Z,22.24
2022-10-18T13:40:22.222Z,21.41
2022-10-18T13:42:48.957Z,21.74
2022-10-18T13:45:33.911Z,21.79
2022-10-18T13:48:35.768Z,21.84
2022-10-18T13:51:28.527Z,21.87
2022-10-18T13:54:39.299Z,21.73
2022-10-18T13:57:16.956Z,21.20
2022-10-18T14:00:11.280Z,20.77
2022-10-18T14:02:59.385Z,21.00
2022-10-18T14:05:47.295Z,21.25
2022-10-18T14:08:20.510Z,21.45
2022-10-18T14:11:19.255Z,21.53
2022-10-18T14:13:54.487Z,21.85
2022-10-18T14:16:32.814Z,22.21
2022-10-18T14:19:13.790Z,21.82
2022-10-18T14:21:47.864Z,21.53
2022-10-18T14:24:20.432Z,21.53
2022-10-18T14:26:47.353Z,21.70
2022-10-18T14:29:20.266Z,21.27
2022-10-18T14:31:54.659Z,21.48
2022-10-18T14:34:22.187Z,22.25
2022-10-18T14:36:49.954Z,22.52
2022-10-18T14:39:27.495Z,22.63
2022-10-18T14:41:56.000Z,22.89
2022-10-18T14:44:28.659Z,22.96
2022-10-18T14:47:04.100Z,23.16
2022-10-18T14:49:31.030Z,23.27
2022-10-18T14:52:01.437Z,22.69
2022-10-18T14:54:37.842Z,22.94
2022-10-18T14:57:07.053Z,22.52
2022-10-18T14:59:57.164Z,22.62
2022-10-18T15:02:29.262Z,22.15
2022-10-18T15:05:06.437Z,22.33
2022-10-18T15:07:33.895Z,22.47
2022-10-18T15:10:04.027Z,22.95
2022-10-18T15:12:41.024Z,22.38
2022-10-18T15:15:24.402Z,22.77
2022-10-18T15:17:52.028Z,22.43
2022-10-18T15:20:33.653Z,22.83
2022-10-18T15:23:21.215Z,23.11
2022-10-18T15:25:48.293Z,23.55
2022-10-18T15:28:32.989Z,24.34
2022-10-18T15:31:01.830Z,26.17
2022-10-18T15:33:34.515Z,27.64
2022-10-18T15:36:12.665Z,29.55
2022-10-18T15:38:39.516Z,30.61
2022-10-18T15:41:43.777Z,31.84
2022-10-18T15:44:34.638Z,32.90
2022-10-18T15:47:38.328Z,33.76
2022-10-18T15:50:05.163Z,34.40
2022-10-18T15:52:42.606Z,34.91
2022-10-18T15:55:31.267Z,35.75
2022-10-18T15:58:17.627Z,36.79
2022-10-18T16:00:45.634Z,36.53
2022-10-18T16:03:20.359Z,37.53
2022-10-18T16:05:47.215Z,36.67
2022-10-18T16:08:23.086Z,39.20
2022-10-18T16:10:49.940Z,39.43
2022-10-18T16:13:16.741Z,40.32
2022-10-18T16:15:43.436Z,40.87
2022-10-18T16:18:20.290Z,42.38
2022-10-18T16:20:48.221Z,42.45
2022-10-18T16:23:32.992Z,42.85
2022-10-18T16:25:59.539Z,43.52
2022-10-18T16:28:26.212Z,44.21
2022-10-18T16:31:03.506Z,45.51
2022-10-18T16:33:30.998Z,45.59
2022-10-18T16:35:57.968Z,45.88
2022-10-18T16:38:35.242Z,46.80
2022-10-18T16:41:04.760Z,47.22
2022-10-18T16:43:31.957Z,47.73
2022-10-18T16:45:58.658Z,48.05
2022-10-18T16:48:27.629Z,48.28
2022-10-18T16:50:55.943Z,49.37
2022-10-18T16:53:27.878Z,48.40
2022-10-18T16:56:00.746Z,50.30
2022-10-18T16:58:29.128Z,50.04
2022-10-18T17:00:56.664Z,50.52
2022-10-18T17:03:24.325Z,52.05
2022-10-18T17:05:50.918Z,52.99
2022-10-18T17:08:20.570Z,53.96
2022-10-18T17:10:49.793Z,55.03
2022-10-18T17:13:16.869Z,54.22
2022-10-18T17:15:43.985Z,54.41
2022-10-18T17:18:16.751Z,55.81
2022-10-18T17:20:44.203Z,55.17
2022-10-18T17:23:11.191Z,55.78
2022-10-18T17:25:46.452Z,56.75
2022-10-18T17:28:24.568Z,56.77
2022-10-18T17:30:51.698Z,57.25
2022-10-18T17:33:18.523Z,57.64
2022-10-18T17:35:45.306Z,58.15
2022-10-18T17:38:12.001Z,58.78
2022-10-18T17:40:42.622Z,59.25
2022-10-18T17:43:09.349Z,59.51
2022-10-18T17:45:36.014Z,59.43
2022-10-18T17:48:02.637Z,59.92
2022-10-18T17:50:29.248Z,60.27
2022-10-18T17:52:55.961Z,60.02
2022-10-18T17:55:22.555Z,59.35
2022-10-18T17:57:49.157Z,59.85
2022-10-18T18:00:16.330Z,60.12
2022-10-18T18:02:43.361Z,60.02
2022-10-18T18:05:12.676Z,58.77
2022-10-18T18:07:39.320Z,58.69
2022-10-18T18:10:08.425Z,58.62
2022-10-18T18:12:36.500Z,57.96
2022-10-18T18:15:04.780Z,58.23
2022-10-18T18:17:34.399Z,57.98
2022-10-18T18:20:07.386Z,57.98
2022-10-18T18:22:36.997Z,58.32
2022-10-18T18:25:09.723Z,58.77
2022-10-18T18:27:39.091Z,59.00
2022-10-18T18:30:08.215Z,59.28
2022-10-18T18:32:36.100Z,59.64
2022-10-18T18:35:04.277Z,59.69
2022-10-18T18:37:35.488Z,59.81
2022-10-18T18:40:03.708Z,60.55
2022-10-18T18:42:32.577Z,60.97
2022-10-18T18:45:00.812Z,62.11
2022-10-18T18:51:16.120Z,61.45
2022-10-18T18:53:45.370Z,61.97
2022-10-18T18:56:16.371Z,61.83
2022-10-18T18:58:46.280Z,62.35
2022-10-18T19:01:22.251Z,62.42
2022-10-18T19:03:52.505Z,63.24
2022-10-18T19:06:22.926Z,63.69
2022-10-18T19:08:50.049Z,64.31
2022-10-18T19:11:21.484Z,65.12
2022-10-18T19:13:50.197Z,65.79
2022-10-18T19:16:31.821Z,65.58
2022-10-18T19:19:06.141Z,65.81
2022-10-18T19:21:39.559Z,66.12
2022-10-18T19:24:07.834Z,66.76
2022-10-18T19:26:48.578Z,66.83
2022-10-18T19:29:21.501Z,67.25
2022-10-18T19:31:51.944Z,66.94
2022-10-18T19:34:22.276Z,66.89
2022-10-18T19:36:51.075Z,66.24
2022-10-18T19:39:21.633Z,66.11
2022-10-18T19:41:56.312Z,66.32
2022-10-18T19:44:25.750Z,66.16
2022-10-18T19:46:52.590Z,65.84
2022-10-18T19:49:20.733Z,66.40
2022-10-18T19:51:48.965Z,66.41
2022-10-18T19:54:17.060Z,66.16
2022-10-18T19:56:45.272Z,66.30
2022-10-18T19:59:15.208Z,66.44
2022-10-18T20:01:42.211Z,65.53
2022-10-18T20:04:11.698Z,65.45
2022-10-18T20:06:39.925Z,65.14
2022-10-18T20:09:10.402Z,65.14
2022-10-18T20:11:37.920Z,64.81
2022-10-18T20:14:06.449Z,64.96
2022-10-18T20:16:34.324Z,64.70
2022-10-18T20:19:04.540Z,64.81
2022-10-18T20:21:35.925Z,64.65
2022-10-18T20:24:05.959Z,64.90
2022-10-18T20:26:35.900Z,64.85
2022-10-18T20:29:04.741Z,64.45
2022-10-18T20:31:41.605Z,64.52
2022-10-18T20:34:11.966Z,64.20
2022-10-18T20:36:40.460Z,64.26
2022-10-18T20:39:12.024Z,64.34
2022-10-18T20:41:41.366Z,64.30
2022-10-18T20:44:13.480Z,64.12
2022-10-18T20:46:41.780Z,64.26
2022-10-18T20:49:10.620Z,64.06
2022-10-18T20:51:37.423Z,64.58
2022-10-18T20:56:38.916Z,64.80
2022-10-18T20:59:09.409Z,64.53
2022-10-18T21:01:38.959Z,64.80
2022-10-18T21:04:09.759Z,64.90
2022-10-18T21:06:42.253Z,64.66
2022-10-18T21:09:12.133Z,64.67
2022-10-18T21:11:42.006Z,64.88
2022-10-18T21:14:13.151Z,65.36
2022-10-18T21:16:41.582Z,65.27
2022-10-18T21:19:15.219Z,65.79
2022-10-18T21:21:44.056Z,65.68
2022-10-18T21:24:12.201Z,65.63
2022-10-18T21:26:39.002Z,66.01
2022-10-18T21:29:06.600Z,66.09
2022-10-18T21:31:35.742Z,65.92
2022-10-18T21:34:05.830Z,65.68
2022-10-18T21:36:34.930Z,65.80
2022-10-18T21:39:03.206Z,65.39
2022-10-18T21:41:31.030Z,65.23
2022-10-18T21:43:57.690Z,65.32
2022-10-18T21:46:26.949Z,65.10
2022-10-18T21:48:55.532Z,64.59
2022-10-18T21:51:24.646Z,64.46
2022-10-18T21:53:53.958Z,64.39
2022-10-18T21:56:26.761Z,64.24
2022-10-18T21:58:54.321Z,64.04
2022-10-18T22:01:26.675Z,63.26
2022-10-18T22:03:55.734Z,64.00
2022-10-18T22:06:23.288Z,63.97
2022-10-18T22:08:56.083Z,64.87
2022-10-18T22:11:25.651Z,64.98
2022-10-18T22:13:53.750Z,65.37
2022-10-18T22:16:20.966Z,65.71
2022-10-18T22:22:44.411Z,65.72
2022-10-18T22:25:11.033Z,66.15
2022-10-18T22:27:38.595Z,65.96
2022-10-18T22:30:05.702Z,66.48
2022-10-18T22:32:32.336Z,65.85
2022-10-18T22:34:59.232Z,65.59
2022-10-18T22:37:25.840Z,66.62
2022-10-18T22:39:52.412Z,67.13
2022-10-18T22:42:18.969Z,68.74
2022-10-18T22:44:45.604Z,70.29
2022-10-18T22:47:12.142Z,71.50
2022-10-18T22:50:16.078Z,72.16
2022-10-18T22:52:42.649Z,71.97
2022-10-18T22:55:09.482Z,73.89
2022-10-18T22:57:36.118Z,74.92
2022-10-18T23:00:03.767Z,74.52
2022-10-18T23:02:30.735Z,74.71
2022-10-18T23:04:57.428Z,75.35
2022-10-18T23:07:23.977Z,75.67
2022-10-18T23:09:50.634Z,76.80
2022-10-18T23:12:17.231Z,78.36
2022-10-18T23:14:44.660Z,79.77
2022-10-18T23:17:11.406Z,78.67
2022-10-18T23:19:38.507Z,78.82
2022-10-18T23:22:05.164Z,77.60
2022-10-18T23:24:31.981Z,79.74
2022-10-18T23:26:58.533Z,79.06
2022-10-18T23:29:25.171Z,80.62
2022-10-18T23:31:51.713Z,81.91
2022-10-18T23:34:18.296Z,82.75
2022-10-18T23:39:16.413Z,84.00
2022-10-18T23:41:44.280Z,83.70
2022-10-18T23:44:12.052Z,85.58
2022-10-18T23:46:41.752Z,85.91
2022-10-18T23:49:09.539Z,86.78
2022-10-18T23:51:37.653Z,86.43
2022-10-18T23:54:04.253Z,86.44
2022-10-18T23:56:32.514Z,85.22
2022-10-18T23:59:00.432Z,85.58
